Gulgong Post Office, New South Wales

6:42 PM AEST on September 30, 2016 (GMT +1000)
Yarrawonga | | Change Station

Elev 1877 ft 32.34 °S, 149.68 °E | Updated 2 minutes ago

Mostly Cloudy
Mostly Cloudy
47.4 °F
Feels Like 47 °F
N
2.0
Wind Variable Wind from NW
Gusts 4.0 mph

Today
High -- | Low -- °F
--% Chance of Precip.
Yesterday
High -- | Low -- °F
Precip. -- in
Pressure 29.68 in
Visibility -9999.0 miles
Clouds Scattered Clouds 1600 ft
Mostly Cloudy 2100 ft
Mostly Cloudy 2700 ft
Windchill 47 °F
Dew Point 45 °F
Humidity 92%
Rainfall 0.49 in
Snow Depth Not available.
5:40 AM 6:03 PM
Waning Crescent, 0% visible
SPECI YMDG 300830Z AUTO 34011KT //// // SCT016 BKN021 BKN027 10/09 Q1005
Pressure 29.68 in
Visibility -9999.0 miles
Clouds Scattered Clouds 1600 ft
Mostly Cloudy 2100 ft
Mostly Cloudy 2700 ft
Windchill 47 °F
Dew Point 45 °F
Humidity 92%
Rainfall 0.49 in
Snow Depth Not available.
5:40 AM 6:03 PM
Waning Crescent, 0% visible
SPECI YMDG 300830Z AUTO 34011KT //// // SCT016 BKN021 BKN027 10/09 Q1005

10-Day Weather Forecast

No radar image for this location.
×

Almanac

Astronomy

Sep. 30, 2016 Rise Set
Actual Time
Civil Twilight
Nautical Twilight
Astronomical Twilight
Moon
Length of Visible Light
Length of Day
Tomorrow will be .
, % of the Moon is Illuminated

Today's Extremes

Country Highs Country Lows

Community

WunderPhotos

Upload Photos

1,942,668 photos uploaded!

WunderBlog® & News

Nearby

Air Quality

  Air Quality AQ Index Pollutant
Not available.

Snow Depth

Station Depth Elevation

Earthquake Activity

City Distance Mag. Time & Date
Minimum magnitude displayed is 2.5.

Coastal Water Temperatures

Place Temperature

Stations

Nearby Weather Stations

Station Location Temp. Windchill Dew Point Humidity Wind Precip. Elev Updated Type